createdAt,value
2022-12-06T00:01:26.716Z,17.05
2022-12-06T00:03:58.135Z,19.35
2022-12-06T00:06:27.762Z,19.95
2022-12-06T00:08:55.322Z,15.50
2022-12-06T00:11:23.664Z,16.92
2022-12-06T00:14:08.901Z,19.63
2022-12-06T00:16:36.275Z,16.33
2022-12-06T00:19:03.811Z,19.63
2022-12-06T00:21:32.656Z,19.35
2022-12-06T00:24:04.584Z,22.05
2022-12-06T00:26:32.180Z,20.80
2022-12-06T00:29:00.372Z,22.42
2022-12-06T00:31:28.594Z,17.08
2022-12-06T00:33:56.204Z,19.05
2022-12-06T00:36:25.107Z,18.23
2022-12-06T00:38:52.403Z,16.13
2022-12-06T00:41:21.299Z,14.82
2022-12-06T00:43:48.689Z,18.65
2022-12-06T00:46:17.824Z,16.55
2022-12-06T00:48:45.472Z,15.05
2022-12-06T00:51:13.100Z,19.88
2022-12-06T00:53:40.606Z,16.80
2022-12-06T00:56:07.954Z,16.08
2022-12-06T00:58:35.181Z,15.07
2022-12-06T01:01:09.657Z,16.70
2022-12-06T01:03:37.247Z,14.98
2022-12-06T01:06:08.348Z,14.63
2022-12-06T01:08:36.485Z,16.33
2022-12-06T01:11:04.399Z,16.17
2022-12-06T01:13:31.609Z,16.55
2022-12-06T01:15:58.942Z,15.15
2022-12-06T01:18:26.146Z,14.95
2022-12-06T01:20:53.513Z,16.70
2022-12-06T01:23:20.726Z,16.15
2022-12-06T01:25:51.744Z,13.93
2022-12-06T01:28:19.279Z,14.88
2022-12-06T01:30:46.842Z,14.75
2022-12-06T01:33:16.942Z,13.75
2022-12-06T01:35:44.521Z,14.82
2022-12-06T01:38:12.660Z,13.02
2022-12-06T01:40:44.869Z,15.85
2022-12-06T01:43:30.865Z,13.70
2022-12-06T01:45:59.196Z,14.70
2022-12-06T01:48:27.272Z,14.20
2022-12-06T01:50:57.756Z,15.75
2022-12-06T01:53:25.987Z,15.93
2022-12-06T01:55:54.277Z,15.85
2022-12-06T01:58:23.984Z,15.10
2022-12-06T02:00:51.291Z,14.82
2022-12-06T02:03:20.608Z,15.52
2022-12-06T02:05:48.021Z,13.15
2022-12-06T02:08:15.581Z,13.55
2022-12-06T02:10:43.230Z,13.77
2022-12-06T02:13:10.576Z,15.55
2022-12-06T02:15:45.164Z,13.40
2022-12-06T02:18:15.819Z,13.82
2022-12-06T02:20:48.085Z,12.40
2022-12-06T02:23:41.622Z,13.20
2022-12-06T02:26:38.418Z,14.55
2022-12-06T02:29:24.283Z,11.90
2022-12-06T02:31:56.676Z,15.23
2022-12-06T02:34:31.412Z,14.32
2022-12-06T02:37:10.313Z,13.75
2022-12-06T02:39:56.626Z,11.93
2022-12-06T02:42:44.144Z,11.75
2022-12-06T02:45:17.141Z,14.50
2022-12-06T02:47:45.196Z,19.23
2022-12-06T02:50:15.316Z,18.25
2022-12-06T02:52:43.833Z,20.70
2022-12-06T02:55:11.781Z,21.70
2022-12-06T02:57:42.287Z,20.65
2022-12-06T03:00:45.393Z,27.58
2022-12-06T03:03:21.388Z,24.67
2022-12-06T03:05:57.691Z,21.23
2022-12-06T03:08:47.967Z,19.08
2022-12-06T03:11:15.642Z,20.67
2022-12-06T03:13:45.858Z,18.70
2022-12-06T03:16:18.411Z,20.52
2022-12-06T03:18:50.551Z,17.92
2022-12-06T03:21:28.968Z,17.33
2022-12-06T03:23:56.692Z,19.75
2022-12-06T03:26:26.055Z,17.42
2022-12-06T03:28:56.078Z,18.65
2022-12-06T03:31:24.546Z,15.35
2022-12-06T03:33:57.105Z,15.75
2022-12-06T03:36:25.603Z,15.15
2022-12-06T03:38:54.749Z,16.70
2022-12-06T03:41:23.917Z,13.02
2022-12-06T03:43:51.283Z,14.75
2022-12-06T03:46:19.775Z,15.13
2022-12-06T03:49:01.078Z,14.65
2022-12-06T03:51:30.099Z,13.07
2022-12-06T03:53:59.346Z,14.80
2022-12-06T03:56:26.700Z,12.40
2022-12-06T03:58:53.951Z,14.48
2022-12-06T04:01:21.281Z,15.57
2022-12-06T04:03:48.797Z,13.18
2022-12-06T04:06:16.103Z,13.45
2022-12-06T04:08:43.404Z,14.40
2022-12-06T04:11:10.715Z,16.30
2022-12-06T04:13:38.212Z,13.93
2022-12-06T04:16:25.555Z,13.85
2022-12-06T04:18:53.015Z,13.40
2022-12-06T04:21:32.375Z,12.75
2022-12-06T04:23:59.806Z,13.23
2022-12-06T04:26:27.550Z,13.35
2022-12-06T04:29:13.591Z,12.30
2022-12-06T04:31:59.850Z,15.25
2022-12-06T04:34:45.696Z,14.65
2022-12-06T04:37:31.841Z,14.30
2022-12-06T04:39:59.459Z,13.73
2022-12-06T04:42:45.625Z,15.05
2022-12-06T04:45:12.915Z,15.45
2022-12-06T04:47:40.125Z,14.77
2022-12-06T04:50:07.796Z,16.65
2022-12-06T04:52:36.283Z,14.77
2022-12-06T04:55:04.825Z,14.95
2022-12-06T04:57:32.139Z,15.60
2022-12-06T04:59:59.643Z,13.80
2022-12-06T05:02:27.097Z,14.23
2022-12-06T05:04:54.518Z,14.98
2022-12-06T05:07:21.745Z,12.27
2022-12-06T05:09:49.225Z,16.23
2022-12-06T05:12:16.446Z,14.60
2022-12-06T05:14:43.683Z,12.45
2022-12-06T05:17:10.942Z,15.32
2022-12-06T05:19:38.409Z,14.88
2022-12-06T05:22:05.678Z,11.40
2022-12-06T05:24:32.899Z,13.75
2022-12-06T05:27:00.312Z,13.45
2022-12-06T05:29:27.520Z,15.80
2022-12-06T05:31:54.812Z,11.45
2022-12-06T05:34:22.054Z,12.73
2022-12-06T05:36:49.484Z,13.30
2022-12-06T05:39:17.028Z,13.00
2022-12-06T05:41:44.263Z,13.13
2022-12-06T05:44:12.329Z,15.05
2022-12-06T05:46:39.680Z,13.65
2022-12-06T05:49:07.037Z,12.27
2022-12-06T05:51:34.299Z,15.52
2022-12-06T05:54:05.224Z,12.15
2022-12-06T05:56:32.478Z,10.23
2022-12-06T05:58:59.756Z,14.35
2022-12-06T06:01:26.995Z,13.15
2022-12-06T06:03:54.248Z,13.30
2022-12-06T06:06:21.551Z,13.85
2022-12-06T06:08:48.853Z,14.15
2022-12-06T06:11:16.381Z,11.80
2022-12-06T06:13:43.610Z,16.75
2022-12-06T06:16:11.157Z,11.18
2022-12-06T06:18:38.532Z,12.18
2022-12-06T06:21:05.895Z,10.98
2022-12-06T06:23:33.572Z,15.57
2022-12-06T06:26:00.845Z,14.45
2022-12-06T06:28:28.086Z,14.30
2022-12-06T06:30:55.341Z,11.70
2022-12-06T06:33:22.569Z,13.48
2022-12-06T06:35:49.834Z,12.73
2022-12-06T06:38:17.064Z,13.30
2022-12-06T06:40:44.423Z,13.80
2022-12-06T06:43:20.960Z,10.10
2022-12-06T06:46:17.551Z,11.05
2022-12-06T06:48:44.788Z,11.25
2022-12-06T06:51:13.336Z,10.30
2022-12-06T06:53:40.626Z,11.40
2022-12-06T06:56:08.067Z,10.85
2022-12-06T06:58:35.300Z,11.45
2022-12-06T07:01:03.427Z,11.18
2022-12-06T07:03:30.682Z,11.57
2022-12-06T07:05:57.879Z,10.80
2022-12-06T07:08:25.844Z,13.98
2022-12-06T07:10:54.417Z,9.70
2022-12-06T07:13:25.821Z,14.25
2022-12-06T07:15:53.373Z,12.88
2022-12-06T07:18:21.039Z,12.38
2022-12-06T07:20:48.714Z,12.52
2022-12-06T07:23:16.687Z,15.57
2022-12-06T07:25:43.910Z,15.65
2022-12-06T07:28:11.144Z,14.25
2022-12-06T07:30:38.390Z,11.95
2022-12-06T07:33:05.713Z,15.30
2022-12-06T07:36:03.528Z,13.50
2022-12-06T07:38:20.641Z,12.63
2022-12-06T07:41:04.019Z,14.90
2022-12-06T07:43:50.792Z,15.10
2022-12-06T07:46:18.095Z,13.18
2022-12-06T07:48:45.538Z,15.52
2022-12-06T07:51:12.753Z,14.75
2022-12-06T07:53:40.027Z,16.15
2022-12-06T07:56:08.580Z,14.38
2022-12-06T07:58:35.980Z,12.18
2022-12-06T08:01:04.088Z,12.02
2022-12-06T08:03:31.483Z,12.00
2022-12-06T08:05:58.737Z,11.70
2022-12-06T08:08:28.823Z,14.93
2022-12-06T08:10:59.177Z,13.35
2022-12-06T08:13:26.590Z,16.27
2022-12-06T08:15:53.862Z,13.77
2022-12-06T08:18:21.498Z,14.85
2022-12-06T08:20:48.944Z,12.13
2022-12-06T08:23:16.204Z,13.75
2022-12-06T08:25:43.525Z,10.55
2022-12-06T08:28:10.826Z,10.13
2022-12-06T08:30:42.033Z,9.77
2022-12-06T08:33:09.374Z,10.75
2022-12-06T08:35:39.539Z,8.68
2022-12-06T08:38:06.811Z,8.82
2022-12-06T08:40:34.034Z,9.27
2022-12-06T08:43:01.521Z,8.85
2022-12-06T08:45:28.749Z,9.73
2022-12-06T08:47:56.140Z,10.82
2022-12-06T08:50:23.347Z,7.50
2022-12-06T08:52:50.744Z,8.60
2022-12-06T08:55:18.024Z,10.40
2022-12-06T08:57:45.437Z,36.83
2022-12-06T09:00:13.057Z,15.20
2022-12-06T09:02:41.012Z,14.15
2022-12-06T09:05:08.933Z,10.25
2022-12-06T09:07:36.266Z,12.20
2022-12-06T09:10:03.677Z,8.65
2022-12-06T09:12:30.917Z,12.90
2022-12-06T09:14:58.171Z,10.98
2022-12-06T09:17:25.385Z,12.13
2022-12-06T09:19:52.635Z,10.27
2022-12-06T09:22:19.889Z,12.25
2022-12-06T09:24:47.305Z,10.05
2022-12-06T09:27:14.551Z,8.75
2022-12-06T09:29:41.779Z,8.18
2022-12-06T09:32:09.039Z,7.22
2022-12-06T09:34:36.266Z,7.80
2022-12-06T09:37:05.516Z,9.52
2022-12-06T09:39:35.402Z,9.68
2022-12-06T09:42:20.763Z,14.38
2022-12-06T09:44:48.105Z,8.05
2022-12-06T09:47:28.189Z,10.18
2022-12-06T09:49:58.810Z,7.65
2022-12-06T09:52:29.017Z,9.48
2022-12-06T09:55:22.406Z,8.52
2022-12-06T09:58:08.523Z,11.73
2022-12-06T10:00:47.078Z,8.43
2022-12-06T10:03:33.017Z,6.78
2022-12-06T10:06:03.012Z,10.10
2022-12-06T10:08:48.831Z,7.35
2022-12-06T10:11:16.539Z,11.18
2022-12-06T10:13:57.727Z,7.72
2022-12-06T10:16:45.300Z,8.48
2022-12-06T10:19:27.650Z,9.00
2022-12-06T10:22:13.935Z,8.88
2022-12-06T10:24:44.178Z,7.88
2022-12-06T10:27:12.909Z,7.93
2022-12-06T10:29:48.525Z,7.53
2022-12-06T10:32:21.700Z,8.10
2022-12-06T10:34:59.649Z,9.52
2022-12-06T10:37:44.121Z,8.35
2022-12-06T10:40:21.897Z,8.02
2022-12-06T10:42:49.199Z,9.05
2022-12-06T10:45:51.030Z,7.43
2022-12-06T10:48:30.010Z,8.15
2022-12-06T10:51:02.640Z,8.18
2022-12-06T10:53:32.751Z,8.75
2022-12-06T10:56:03.236Z,7.00
2022-12-06T10:58:39.745Z,7.97
2022-12-06T11:01:13.129Z,9.85
2022-12-06T11:03:43.574Z,8.80
2022-12-06T11:06:16.409Z,8.45
2022-12-06T11:08:49.835Z,7.22
2022-12-06T11:11:18.659Z,8.77
2022-12-06T11:13:50.851Z,9.50
2022-12-06T11:16:23.947Z,8.57
2022-12-06T11:18:51.502Z,8.02
2022-12-06T11:21:28.857Z,8.65
2022-12-06T11:24:08.689Z,7.57
2022-12-06T11:26:39.170Z,8.50
2022-12-06T11:29:10.998Z,10.60
2022-12-06T11:31:43.943Z,11.88
2022-12-06T11:34:25.059Z,16.30
2022-12-06T11:36:59.598Z,21.17
2022-12-06T11:41:56.320Z,18.77
2022-12-06T11:44:25.774Z,18.05
2022-12-06T11:46:56.435Z,14.15
2022-12-06T11:49:43.983Z,18.02
2022-12-06T11:52:34.497Z,14.45
2022-12-06T11:55:04.161Z,18.60
2022-12-06T11:57:33.966Z,17.02
2022-12-06T12:00:21.632Z,15.55
2022-12-06T12:02:49.942Z,16.65
2022-12-06T12:05:17.208Z,16.52
2022-12-06T12:07:46.050Z,17.63
2022-12-06T12:10:28.296Z,13.98
2022-12-06T12:13:15.420Z,12.15
2022-12-06T12:15:50.770Z,14.13
2022-12-06T12:20:46.499Z,13.07
2022-12-06T12:23:22.497Z,10.15
2022-12-06T12:26:02.071Z,10.88
2022-12-06T12:28:31.240Z,10.35
2022-12-06T12:30:59.793Z,11.20
2022-12-06T12:33:28.434Z,13.85
2022-12-06T12:35:57.585Z,11.32
2022-12-06T12:38:24.861Z,11.10
2022-12-06T12:40:57.153Z,10.13
2022-12-06T12:43:25.961Z,9.77
2022-12-06T12:46:11.302Z,9.88
2022-12-06T12:48:39.550Z,9.52
2022-12-06T12:51:20.127Z,11.27
2022-12-06T12:53:49.445Z,10.82
2022-12-06T12:56:21.288Z,10.35
2022-12-06T12:58:49.764Z,9.38
2022-12-06T13:01:26.434Z,10.90
2022-12-06T13:03:57.181Z,7.53
2022-12-06T13:06:34.085Z,8.35
2022-12-06T13:09:03.682Z,9.68
2022-12-06T13:11:32.405Z,14.90
2022-12-06T13:14:00.758Z,13.60
2022-12-06T13:16:33.324Z,13.23
2022-12-06T13:19:01.294Z,17.20
2022-12-06T13:21:46.874Z,8.95
2022-12-06T13:24:26.014Z,10.15
2022-12-06T13:26:57.230Z,17.65
2022-12-06T13:29:24.563Z,10.98
2022-12-06T13:31:52.851Z,8.02
2022-12-06T13:34:22.976Z,7.70
2022-12-06T13:36:52.362Z,12.00
2022-12-06T13:39:40.027Z,10.00
2022-12-06T13:42:23.031Z,14.55
2022-12-06T13:44:54.901Z,18.65
2022-12-06T13:47:28.132Z,12.32
2022-12-06T13:49:57.068Z,16.00
2022-12-06T13:52:42.768Z,11.55
2022-12-06T13:57:41.636Z,12.88
2022-12-06T14:00:27.720Z,13.45
2022-12-06T14:03:03.197Z,12.55
2022-12-06T14:10:43.751Z,10.25
2022-12-06T14:13:18.382Z,11.38
2022-12-06T14:15:47.090Z,12.80
2022-12-06T14:18:22.372Z,9.88
2022-12-06T14:23:43.134Z,9.32
2022-12-06T14:26:13.993Z,9.85
2022-12-06T14:28:42.013Z,11.10
2022-12-06T14:31:18.942Z,24.45
2022-12-06T14:33:46.551Z,8.18
2022-12-06T14:36:43.188Z,12.10
2022-12-06T14:39:13.277Z,9.98
2022-12-06T14:41:59.300Z,11.13
2022-12-06T14:44:31.484Z,13.18
2022-12-06T14:46:59.294Z,12.95
2022-12-06T14:49:46.447Z,12.25
2022-12-06T14:52:17.676Z,13.88
2022-12-06T14:54:45.504Z,11.18
2022-12-06T14:57:21.438Z,10.30
2022-12-06T15:02:41.727Z,10.85
2022-12-06T15:05:27.755Z,10.88
2022-12-06T15:07:55.044Z,10.77
2022-12-06T15:10:32.329Z,14.52
2022-12-06T15:13:15.314Z,10.23
2022-12-06T15:15:45.299Z,9.63
2022-12-06T15:18:14.857Z,49.40
2022-12-06T15:20:42.160Z,43.97
2022-12-06T15:23:19.744Z,24.55
2022-12-06T15:25:46.988Z,10.68
2022-12-06T15:28:18.410Z,9.70
2022-12-06T15:30:47.213Z,11.07
2022-12-06T15:33:24.424Z,10.15
2022-12-06T15:35:52.200Z,10.15
2022-12-06T15:38:19.503Z,12.55
2022-12-06T15:40:49.049Z,20.92
2022-12-06T15:43:19.166Z,14.38
2022-12-06T15:45:46.432Z,17.13
2022-12-06T15:48:13.713Z,9.65
2022-12-06T15:50:40.976Z,9.77
2022-12-06T15:53:08.299Z,8.98
2022-12-06T15:55:35.533Z,10.07
2022-12-06T15:58:02.792Z,9.93
2022-12-06T16:00:30.024Z,11.57
2022-12-06T16:02:57.455Z,10.02
2022-12-06T16:05:24.780Z,9.50
2022-12-06T16:07:52.085Z,9.55
2022-12-06T16:10:22.316Z,10.65
2022-12-06T16:13:09.192Z,8.50
2022-12-06T16:15:36.457Z,9.20
2022-12-06T16:18:03.985Z,12.38
2022-12-06T16:20:31.275Z,12.30
2022-12-06T16:23:18.056Z,14.18
2022-12-06T16:25:45.467Z,10.00
2022-12-06T16:28:13.378Z,13.35
2022-12-06T16:30:41.320Z,15.15
2022-12-06T16:33:08.923Z,14.65
2022-12-06T16:35:36.202Z,17.92
2022-12-06T16:38:03.434Z,21.63
2022-12-06T16:40:30.699Z,19.40
2022-12-06T16:42:57.922Z,48.63
2022-12-06T16:45:25.120Z,48.17
2022-12-06T16:47:52.563Z,29.05
2022-12-06T16:50:24.980Z,24.13
2022-12-06T16:52:52.436Z,24.98
2022-12-06T16:55:19.702Z,24.52
2022-12-06T16:57:47.041Z,24.85
2022-12-06T17:00:15.043Z,29.17
2022-12-06T17:02:44.539Z,22.55
2022-12-06T17:05:17.294Z,27.02
2022-12-06T17:07:44.683Z,28.17
2022-12-06T17:10:12.614Z,25.88
2022-12-06T17:12:40.686Z,24.92
2022-12-06T17:15:08.257Z,29.10
2022-12-06T17:17:35.649Z,28.02
2022-12-06T17:20:03.213Z,27.10
2022-12-06T17:22:30.481Z,28.20
2022-12-06T17:24:57.758Z,26.95
2022-12-06T17:27:24.970Z,26.30
2022-12-06T17:29:52.328Z,22.88
2022-12-06T17:32:20.625Z,18.92
2022-12-06T17:34:48.088Z,18.13
2022-12-06T17:37:15.359Z,15.95
2022-12-06T17:39:43.985Z,17.58
2022-12-06T17:42:47.464Z,16.95
2022-12-06T17:45:14.768Z,16.17
2022-12-06T17:47:42.088Z,14.55
2022-12-06T17:50:09.703Z,16.88
2022-12-06T17:52:36.924Z,16.70
2022-12-06T17:55:04.693Z,14.85
2022-12-06T17:57:32.639Z,15.70
2022-12-06T17:59:59.877Z,17.08
2022-12-06T18:02:27.252Z,15.88
2022-12-06T18:04:56.427Z,15.60
2022-12-06T18:07:23.658Z,10.75
2022-12-06T18:09:51.255Z,18.83
2022-12-06T18:12:19.075Z,15.48
2022-12-06T18:14:46.709Z,12.05
2022-12-06T18:17:13.951Z,13.43
2022-12-06T18:19:41.258Z,13.30
2022-12-06T18:22:08.508Z,13.02
2022-12-06T18:24:36.504Z,12.85
2022-12-06T18:27:05.067Z,14.30
2022-12-06T18:29:32.593Z,15.68
2022-12-06T18:32:00.019Z,15.25
2022-12-06T18:34:27.327Z,16.17
2022-12-06T18:36:54.569Z,16.17
2022-12-06T18:39:25.032Z,16.15
2022-12-06T18:41:53.104Z,16.70
2022-12-06T18:44:20.404Z,15.07
2022-12-06T18:46:47.629Z,16.75
2022-12-06T18:49:15.370Z,14.55
2022-12-06T18:51:42.784Z,16.35
2022-12-06T18:54:11.369Z,16.33
2022-12-06T18:56:39.669Z,16.02
2022-12-06T18:59:07.688Z,16.88
2022-12-06T19:01:36.351Z,18.27
2022-12-06T19:04:04.517Z,23.17
2022-12-06T19:06:33.705Z,22.08
2022-12-06T19:09:02.979Z,18.45
2022-12-06T19:11:30.204Z,20.15
2022-12-06T19:13:58.450Z,17.65
2022-12-06T19:16:30.287Z,19.10
2022-12-06T19:18:58.697Z,18.25
2022-12-06T19:21:26.290Z,18.45
2022-12-06T19:23:54.658Z,18.73
2022-12-06T19:26:22.345Z,21.58
2022-12-06T19:28:49.645Z,18.38
2022-12-06T19:31:17.060Z,16.98
2022-12-06T19:33:46.329Z,18.15
2022-12-06T19:36:18.216Z,19.48
2022-12-06T19:38:45.483Z,19.55
2022-12-06T19:41:15.100Z,23.58
2022-12-06T19:44:01.262Z,18.85
2022-12-06T19:46:29.471Z,21.90
2022-12-06T19:48:57.842Z,19.05
2022-12-06T19:51:28.304Z,20.17
2022-12-06T19:53:57.927Z,19.98
2022-12-06T19:56:26.128Z,23.60
2022-12-06T19:58:54.652Z,23.70
2022-12-06T20:01:23.771Z,25.00
2022-12-06T20:03:51.397Z,20.05
2022-12-06T20:06:20.000Z,18.95
2022-12-06T20:08:47.767Z,17.48
2022-12-06T20:11:35.193Z,18.52
2022-12-06T20:14:03.224Z,20.13
2022-12-06T20:16:30.525Z,22.00
2022-12-06T20:18:57.861Z,21.02
2022-12-06T20:21:25.192Z,20.60
2022-12-06T20:23:53.973Z,20.05
2022-12-06T20:26:21.316Z,21.27
2022-12-06T20:28:48.694Z,22.50
2022-12-06T20:31:20.599Z,19.40
2022-12-06T20:33:48.226Z,21.38
2022-12-06T20:36:16.609Z,19.60
2022-12-06T20:38:43.998Z,20.98
2022-12-06T20:41:12.372Z,20.67
2022-12-06T20:43:40.127Z,19.75
2022-12-06T20:46:14.568Z,20.08
2022-12-06T20:48:42.913Z,21.35
2022-12-06T20:51:11.551Z,21.38
2022-12-06T20:53:38.804Z,21.52
2022-12-06T20:56:10.368Z,24.80
2022-12-06T20:58:37.653Z,24.23
2022-12-06T21:01:05.804Z,19.80
2022-12-06T21:03:33.511Z,20.73
2022-12-06T21:06:04.782Z,20.65
2022-12-06T21:08:32.034Z,19.40
2022-12-06T21:11:22.055Z,17.15
2022-12-06T21:13:47.127Z,18.38
2022-12-06T21:16:15.942Z,18.30
2022-12-06T21:18:43.513Z,16.70
2022-12-06T21:21:11.313Z,18.65
2022-12-06T21:23:39.515Z,18.95
2022-12-06T21:26:07.106Z,18.35
2022-12-06T21:28:34.492Z,16.05
2022-12-06T21:31:01.741Z,15.45
2022-12-06T21:33:29.158Z,17.27
2022-12-06T21:35:56.377Z,15.70
2022-12-06T21:38:23.607Z,15.88
2022-12-06T21:40:55.404Z,15.13
2022-12-06T21:43:24.751Z,19.30
2022-12-06T21:45:51.998Z,17.08
2022-12-06T21:48:19.405Z,15.00
2022-12-06T21:50:46.611Z,15.65
2022-12-06T21:53:13.845Z,12.48
2022-12-06T21:55:41.221Z,17.38
2022-12-06T21:58:08.974Z,16.38
2022-12-06T22:00:36.186Z,15.40
2022-12-06T22:03:03.572Z,15.52
2022-12-06T22:05:30.804Z,14.93
2022-12-06T22:07:58.072Z,17.38
2022-12-06T22:10:25.346Z,17.60
2022-12-06T22:12:52.568Z,13.60
2022-12-06T22:15:19.799Z,16.05
2022-12-06T22:17:47.020Z,17.42
2022-12-06T22:20:14.243Z,13.95
2022-12-06T22:22:41.473Z,14.88
2022-12-06T22:25:09.301Z,14.90
2022-12-06T22:27:36.545Z,14.57
2022-12-06T22:30:04.104Z,17.25
2022-12-06T22:32:33.767Z,16.85
2022-12-06T22:35:01.159Z,18.27
2022-12-06T22:37:28.729Z,17.77
2022-12-06T22:39:56.027Z,16.02
2022-12-06T22:42:23.244Z,16.95
2022-12-06T22:44:50.629Z,18.83
2022-12-06T22:47:17.989Z,17.83
2022-12-06T22:49:45.420Z,18.05
2022-12-06T22:52:12.628Z,16.42
2022-12-06T22:54:39.852Z,17.80
2022-12-06T22:57:07.070Z,18.52
2022-12-06T22:59:34.345Z,18.02
2022-12-06T23:02:01.741Z,18.33
2022-12-06T23:04:29.184Z,17.73
2022-12-06T23:06:56.379Z,19.20
2022-12-06T23:09:23.865Z,18.58
2022-12-06T23:11:51.089Z,18.63
2022-12-06T23:14:18.590Z,16.35
2022-12-06T23:16:46.230Z,16.60
2022-12-06T23:19:13.619Z,17.80
2022-12-06T23:21:42.722Z,17.67
2022-12-06T23:24:11.608Z,20.45
2022-12-06T23:26:40.375Z,18.00
2022-12-06T23:29:07.864Z,17.73
2022-12-06T23:31:36.597Z,17.30
2022-12-06T23:34:09.142Z,19.85
2022-12-06T23:36:36.574Z,18.17
2022-12-06T23:39:04.863Z,16.95
2022-12-06T23:41:33.035Z,18.15
2022-12-06T23:44:00.734Z,18.33
2022-12-06T23:46:29.455Z,15.68
2022-12-06T23:48:57.093Z,18.17
2022-12-06T23:51:25.626Z,18.15
2022-12-06T23:53:57.573Z,20.17
2022-12-06T23:56:25.582Z,18.17
2022-12-06T23:58:53.117Z,18.48
